Weather observations for the past three days for
Deming Municipal Airport
Imperial (Metric)
Date Time (mdt) Wind (mph) Vis. (mi.) Weather Sky Cond. Temperature (ºF) Relative Humidity Wind Chill (°F) Heat Index (°F) Pressure Precipitation (in)
Air Dwpt 6 hour altimeter (in) sea level (mb) 1 hr 3 hr 6 hr
Max. Min.
04 09:53 SW 8 10.00 Fair CLR 75 66 74% 76 30.14 1012.6
04 07:53 SW 3 10.00 Fair CLR 68 64.9 90% 30.13 1012.6
04 06:53 S 5 10.00 Fair CLR 66.9 64.9 93% 30.12 1012.0
04 05:53 Calm 10.00 Fair CLR 66.9 64.9 80.1 66.9 93% 30.11 1011.6 0.11
04 04:53 S 3 10.00 Fair CLR 66.9 66 97% 30.1 1011.4
04 03:53 SW 3 10.00 Partly Cloudy SCT110 66.9 66 97% 30.09 1010.9 0.01
04 02:53 NW 6 10.00 Light Rain BKN120 68 66 93% 30.09 1011.2 0.03 0.1
04 01:53 W 8 10.00 Light Rain OVC110 68 64.9 90% 30.12 1012.0 0.06
04 00:53 SW 20 G 31 9.00 Thunderstorm in Vicinity Light Rain FEW043 SCT055 OVC095 68 64.9 90% 30.12 1012.5 0.01
03 23:53 S 14 G 22 10.00 Overcast FEW075 OVC090 80.1 57.9 90 80.1 47% 81 30.11 1010.9
03 22:53 W 10 10.00 Fair CLR 81 57 44% 81 30.07 1009.9
03 21:53 W 13 10.00 Fair CLR 82 57 43% 82 30.05 1009.4
03 20:53 W 13 G 18 10.00 Fair CLR 84 55 37% 83 30.03 1008.6
03 19:53 W 3 10.00 Fair CLR 86 53.1 32% 84 30.01 1007.7
03 18:53 W 5 10.00 Fair CLR 88 53.1 30% 86 30.01 1007.7
03 17:53 Vrbl 7 10.00 Fair CLR 90 53.1 91.9 82 28% 88 30.01 1007.6
03 16:53 Vrbl 3 10.00 Fair CLR 89.1 54 30% 87 30.01 1007.6
03 15:53 Calm 10.00 Fair CLR 89.1 54 30% 87 30.03 1008.2
03 14:53 Calm 10.00 Fair CLR 87.1 55.9 35% 86 30.06 1009.4
03 13:53 NW 5 10.00 Fair CLR 84.9 57 39% 84 30.09 1010.4
03 12:53 SW 8 10.00 Overcast FEW039 BKN090 OVC110 82.9 57 41% 82 30.11 1011.0
03 11:53 W 8 10.00 A Few Clouds FEW110 84.9 55 84.9 73.9 36% 84 30.13 1011.6
03 10:53 W 10 10.00 Partly Cloudy SCT110 81 59 47% 81 30.14 1011.9
03 09:53 Calm 10.00 A Few Clouds FEW100 78.1 59 52% 79 30.14 1012.1
03 08:53 W 9 10.00 A Few Clouds FEW120 77 59 54% 79 30.15 1012.4
03 07:53 W 10 10.00 Fair CLR 75 59 58% 77 30.15 1012.3
03 06:53 SW 9 10.00 A Few Clouds FEW090 73.9 59 60% 30.12 1011.3
03 05:53 W 12 10.00 Fair CLR 73.9 57 82 73.9 56% 30.1 1010.7
03 04:53 SW 10 10.00 Fair CLR 73.9 57.9 57% 30.09 1010.3
03 03:53 W 8 10.00 Fair CLR 75.9 59 56% 78 30.09 1010.0
03 02:53 SW 8 10.00 Fair CLR 75.9 57.9 54% 78 30.1 1010.2
03 01:53 SW 12 G 22 10.00 Fair CLR 78.1 57 48% 79 30.1 1010.3
03 00:53 W 10 10.00 Fair CLR 81 52 37% 80 30.08 1009.7
02 23:53 W 9 10.00 Fair CLR 82 51.1 93 82 34% 81 30.08 1009.9
02 22:53 W 10 10.00 Fair CLR 84 50 31% 82 30.09 1010.3
02 21:53 W 12 10.00 Fair CLR 84.9 48.9 29% 83 30.08 1009.9
02 20:53 W 12 10.00 Fair CLR 88 46.9 24% 85 30.06 1009.2
02 19:53 W 12 10.00 A Few Clouds FEW120 89.1 48 24% 86 30.04 1008.8
02 18:53 W 10 10.00 Fair CLR 91 46.9 22% 88 30.02 1008.4
02 17:53 Calm 10.00 Fair CLR 91.9 46 96.1 84.9 21% 88 30.02 1008.3
02 16:53 Vrbl 3 10.00 Fair CLR 93.9 46.9 20% 90 30.04 1008.4
02 15:53 Vrbl 6 10.00 Fair CLR 93.9 46.9 20% 90 30.06 1009.0
02 14:53 Vrbl 6 G 21 10.00 Fair CLR 93 46 20% 89 30.08 1010.2
02 13:53 Calm 10.00 Fair CLR 93 46 20% 89 30.11 1011.1
02 12:53 Vrbl 5 10.00 Fair CLR 89.1 44.1 21% 86 30.14 1012.2
02 11:53 SW 7 10.00 Fair CLR 86 50 86 66.9 29% 84 30.17 1013.2
02 10:53 W 10 10.00 A Few Clouds FEW120 82 53.1 37% 81 30.18 1013.8
02 09:53 SW 13 10.00 Mostly Cloudy BKN110 81 52 37% 80 30.18 1013.7
02 08:53 SW 9 10.00 Fair CLR 77 53.1 43% 78 30.17 1013.5
02 07:53 Calm 10.00 Fair CLR 71.1 50 47% 30.16 1013.4
02 06:53 SW 3 10.00 Fair CLR 68 51.1 55% 30.14 1012.6
02 05:53 Calm 10.00 Fair CLR 69.1 51.1 77 68 53% 30.13 1012.1
02 04:53 W 7 10.00 Fair CLR 73 52 48% 30.13 1011.6
02 03:53 W 9 10.00 Fair CLR 73.9 50 43% 30.12 1011.5
02 02:53 SW 7 10.00 Fair CLR 71.1 46.9 42% 30.13 1011.8
02 01:53 SW 10 10.00 Fair CLR 72 48 43% 30.13 1011.9
02 00:53 W 5 10.00 Fair CLR 75 48 39% 77 30.13 1011.8
01 23:53 NW 8 10.00 A Few Clouds FEW085 77 46.9 91.9 77 35% 78 30.12 1011.8
01 22:53 W 8 10.00 Fair CLR 79 46.9 32% 79 30.13 1011.9
01 21:53 W 5 10.00 Fair CLR 80.1 48 33% 79 30.12 1011.7
01 20:53 SW 6 10.00 Fair CLR 82 46.9 29% 80 30.09 1010.9
01 19:53 W 8 10.00 Fair CLR 84.9 48 28% 83 30.06 1009.8
01 18:53 W 13 G 23 10.00 Fair CLR 89.1 46.9 23% 86 30.05 1009.4
01 17:53 W 10 G 18 10.00 Fair CLR 91 48 91.9 82.9 23% 88 30.05 1009.3
01 16:53 SW 10 G 20 10.00 Fair CLR 91 48 23% 88 30.06 1009.4
01 15:53 Vrbl 6 G 18 10.00 Fair CLR 91.9 51.1 25% 89 30.08 1009.8
01 14:53 S 9 G 20 10.00 A Few Clouds FEW080 91 51.1 26% 88 30.11 1010.9
01 13:53 SW 9 G 20 10.00 Fair CLR 90 52 27% 87 30.13 1011.8
01 12:53 SW 6 10.00 Fair CLR 87.1 53.1 31% 85 30.15 1012.8
01 11:53 Vrbl 3 10.00 Fair CLR 82.9 54 82.9 71.1 37% 82 30.17 1013.8
01 10:53 Vrbl 3 10.00 Fair CLR 80.1 54 41% 80 30.18 1014.1
Date Time (mdt) Wind (mph) Vis. (mi.) Weather Sky Cond. Air Dwpt Max. Min. Relative Humidity Wind Chill (°F) Heat Index (°F) altimeter (in) sea level (mb) 1 hr 3 hr 6 hr
6 hour
Temperature (ºF) Pressure Precipitation (in)